This is the latest recevied weather packets stored in our database for station/object WX7EM. If no packets are shown the sender has not sent any weather packets the latest 10 day(s).
| Time | Temp. | Humidity | Pressure | Rain* | Wind** | Luminosity | Snow |
|---|---|---|---|---|---|---|---|
| 1777608099 | 17.22° C | 72% | 1013.9 hPa | 0 mm | - | 0 W/m² | - |
| 1777607795 | 17.22° C | 71% | 1013.7 hPa | 0 mm | - | 0 W/m² | - |
| 1777607491 | 17.22° C | 71% | 1013.7 hPa | 0 mm | - | 0 W/m² | - |
| 1777607188 | 17.22° C | 71% | 1013.3 hPa | 0 mm | - | 0 W/m² | - |
| 1777606884 | 17.22° C | 72% | 1013.3 hPa | 0 mm | - | 0 W/m² | - |
| 1777606580 | 17.78° C | 71% | 1013.4 hPa | 0 mm | - | 0 W/m² | - |
| 1777606275 | 17.78° C | 72% | 1013.4 hPa | 0 mm | - | 0 W/m² | - |
| 1777605971 | 17.78° C | 72% | 1013.4 hPa | 0 mm | - | 1 W/m² | - |
| 1777605667 | 18.33° C | 71% | 1013.4 hPa | 0 mm | - | 2 W/m² | - |
| 1777605366 | 18.33° C | 70% | 1013.4 hPa | 0 mm | - | 3 W/m² | - |
| 1777605063 | 18.89° C | 70% | 1013.4 hPa | 0 mm | - | 5 W/m² | - |
| 1777604758 | 18.89° C | 69% | 1013.4 hPa | 0 mm | - | 7 W/m² | - |
| 1777604456 | 19.44° C | 68% | 1013.2 hPa | 0 mm | - | 11 W/m² | - |
| 1777604155 | 20° C | 68% | 1013.2 hPa | 0 mm | - | 15 W/m² | - |
| 1777603852 | 20° C | 67% | 1013.3 hPa | 0 mm | - | 20 W/m² | - |
| 1777603548 | 20.56° C | 66% | 1013.2 hPa | 0 mm | - | 24 W/m² | - |
| 1777603244 | 21.67° C | 60% | 1013.2 hPa | 0 mm | - | 29 W/m² | - |
| 1777602940 | 22.22° C | 58% | 1012.9 hPa | 0 mm | - | 40 W/m² | - |
| 1777602636 | 22.78° C | 56% | 1012.9 hPa | 0 mm | - | 50 W/m² | - |
| 1777602330 | 22.78° C | 55% | 1012.8 hPa | 0 mm | - | 58 W/m² | - |
| 1777602027 | 22.78° C | 55% | 1012.9 hPa | 0 mm | - | 61 W/m² | - |
| 1777601721 | 22.78° C | 55% | 1012.9 hPa | 0 mm | - | 61 W/m² | - |
| 1777601417 | 22.78° C | 57% | 1012.9 hPa | 0 mm | - | 56 W/m² | - |
| 1777601114 | 22.78° C | 55% | 1013 hPa | 0 mm | - | 50 W/m² | - |
| 1777600812 | 23.33° C | 55% | 1013.2 hPa | 0 mm | - | 48 W/m² | - |
* Rain latest hour (hover to see other rain measurements)
** Current wind speed in m/s (hover to see current wind gust speed)